Time;durP1;ratioP1;P1;durP2;ratioP2;P2;SDS_P1;SDS_P2;PMS_P1;PMS_P2;Temp;Humidity;BMP_temperature;BMP_pressure;BME280_temperature;BME280_humidity;BME280_pressure;Samples;Min_cycle;Max_cycle;Signal;HPM_P1;HPM_P2
2023/03/03 00:00:41;;;;;;;4.90;1.50;;;25.20;99.90;;;;;;4995198;28;20199;-81
2023/03/03 00:03:16;;;;;;;5.95;1.63;;;25.40;99.90;;;;;;4994638;28;20195;-90
2023/03/03 00:05:47;;;;;;;2.90;1.20;;;25.40;99.90;;;;;;4991555;28;20286;-81
2023/03/03 00:08:17;;;;;;;4.25;1.50;;;25.70;99.90;;;;;;5000073;28;20219;-90
2023/03/03 00:10:48;;;;;;;2.28;1.10;;;25.90;99.90;;;;;;4984365;28;20223;-85
2023/03/03 00:13:23;;;;;;;2.38;1.20;;;26.00;99.90;;;;;;4999229;28;20191;-86
2023/03/03 00:15:54;;;;;;;3.50;1.20;;;26.10;99.90;;;;;;4988836;28;20675;-82
2023/03/03 00:18:30;;;;;;;3.45;1.55;;;26.30;99.90;;;;;;4990291;28;20203;-78
2023/03/03 00:21:02;;;;;;;4.60;1.60;;;26.40;99.90;;;;;;4990182;28;20219;-77
2023/03/03 00:23:36;;;;;;;6.03;2.20;;;26.50;99.90;;;;;;4998608;28;20206;-77
2023/03/03 00:26:20;;;;;;;8.82;2.15;;;26.60;99.90;;;;;;4985510;28;20599;-78
2023/03/03 00:28:55;;;;;;;5.57;1.67;;;26.60;99.90;;;;;;4991964;28;20219;-78
2023/03/03 00:31:32;;;;;;;2.20;1.30;;;26.30;99.90;;;;;;4988769;28;20196;-86
2023/03/03 00:34:21;;;;;;;3.17;1.40;;;26.40;99.90;;;;;;4991312;28;20196;-78
2023/03/03 00:36:56;;;;;;;6.40;1.48;;;26.50;99.90;;;;;;4993597;28;20196;-78
2023/03/03 00:39:32;;;;;;;4.20;1.30;;;26.40;99.90;;;;;;4992789;28;20225;-77
2023/03/03 00:42:04;;;;;;;8.20;2.42;;;26.30;99.90;;;;;;4995615;28;20250;-87
2023/03/03 00:44:59;;;;;;;4.88;1.58;;;26.10;99.90;;;;;;4993146;28;20195;-84
2023/03/03 00:47:32;;;;;;;4.32;1.80;;;25.80;99.90;;;;;;4992349;28;20296;-87
2023/03/03 00:50:28;;;;;;;3.78;1.65;;;25.50;99.90;;;;;;4990191;28;20673;-85
2023/03/03 00:53:13;;;;;;;3.80;1.52;;;25.30;99.90;;;;;;4981564;28;20656;-76
2023/03/03 00:55:43;;;;;;;3.95;2.00;;;25.30;99.90;;;;;;4999215;28;20330;-79
2023/03/03 00:58:14;;;;;;;5.35;2.60;;;25.10;99.90;;;;;;5005365;28;20267;-78
2023/03/03 01:00:48;;;;;;;2.85;2.30;;;25.20;99.90;;;;;;5001476;28;20203;-77
2023/03/03 01:03:20;;;;;;;5.45;2.30;;;25.30;99.90;;;;;;5009459;28;20203;-81
2023/03/03 01:05:52;;;;;;;5.32;2.05;;;25.20;99.90;;;;;;4995284;28;21492;-80
2023/03/03 01:08:25;;;;;;;4.68;1.70;;;25.20;99.90;;;;;;4998197;28;20220;-78
2023/03/03 01:11:01;;;;;;;5.35;1.80;;;25.10;99.90;;;;;;4986605;28;20663;-81
2023/03/03 01:13:35;;;;;;;3.42;1.73;;;24.90;99.90;;;;;;4995391;28;20203;-77
2023/03/03 01:16:11;;;;;;;4.55;1.83;;;24.80;99.90;;;;;;4991787;28;20647;-78
2023/03/03 01:18:42;;;;;;;4.93;2.10;;;24.70;99.90;;;;;;4990520;28;20199;-78
2023/03/03 01:21:13;;;;;;;5.60;2.00;;;24.60;99.90;;;;;;4996865;28;20201;-78
2023/03/03 01:23:47;;;;;;;6.22;1.92;;;24.50;99.90;;;;;;4992619;28;20194;-78
2023/03/03 01:26:17;;;;;;;8.05;2.78;;;24.40;99.90;;;;;;4998212;28;20192;-78
2023/03/03 01:28:48;;;;;;;5.93;2.42;;;24.40;99.90;;;;;;4979609;28;20220;-80
2023/03/03 01:31:21;;;;;;;4.45;1.90;;;24.30;99.90;;;;;;4980283;28;20201;-81
2023/03/03 01:33:51;;;;;;;2.67;1.70;;;24.30;99.90;;;;;;4977382;28;20188;-80
2023/03/03 01:36:26;;;;;;;3.63;1.73;;;24.10;99.90;;;;;;4977212;28;20192;-78
2023/03/03 01:38:57;;;;;;;4.97;2.00;;;23.80;99.90;;;;;;4977198;28;20590;-79
2023/03/03 01:41:32;;;;;;;4.15;2.15;;;23.60;99.90;;;;;;4993755;28;20192;-77
2023/03/03 01:44:05;;;;;;;3.63;2.10;;;23.40;99.90;;;;;;4993342;28;20533;-79
2023/03/03 01:46:53;;;;;;;4.68;2.20;;;23.30;99.90;;;;;;4996863;28;20254;-78
2023/03/03 01:49:28;;;;;;;6.07;2.60;;;23.30;99.90;;;;;;4996462;28;20237;-78
2023/03/03 01:52:01;;;;;;;4.20;2.40;;;23.20;99.90;;;;;;4996466;28;20191;-78
2023/03/03 01:54:38;;;;;;;4.13;1.70;;;23.20;99.90;;;;;;4996498;28;20250;-79
2023/03/03 01:57:14;;;;;;;4.22;1.58;;;23.00;99.90;;;;;;4996378;28;20188;-81
2023/03/03 01:59:49;;;;;;;3.25;1.08;;;22.80;99.90;;;;;;4996203;28;20249;-77
2023/03/03 02:02:22;;;;;;;5.03;1.30;;;22.60;99.90;;;;;;4996250;28;20242;-79
2023/03/03 02:04:53;;;;;;;2.70;0.95;;;22.50;99.90;;;;;;4996298;28;20195;-79
2023/03/03 02:07:26;;;;;;;3.85;1.10;;;22.40;99.90;;;;;;4994924;28;20206;-78
2023/03/03 02:10:00;;;;;;;1.83;0.95;;;22.40;99.90;;;;;;4996023;28;20235;-78
2023/03/03 02:12:38;;;;;;;3.42;0.98;;;22.40;99.90;;;;;;4995737;28;20243;-78
2023/03/03 02:15:19;;;;;;;1.83;0.90;;;22.40;99.90;;;;;;4996284;28;20251;-82
2023/03/03 02:17:55;;;;;;;3.17;0.90;;;22.50;99.90;;;;;;4996172;28;20195;-80
2023/03/03 02:20:39;;;;;;;2.75;0.85;;;22.50;99.90;;;;;;4987126;28;20215;-80
2023/03/03 02:23:15;;;;;;;3.08;0.88;;;22.50;99.90;;;;;;4984723;28;20263;-79
2023/03/03 02:25:54;;;;;;;3.60;0.70;;;22.60;99.90;;;;;;4976563;28;20196;-77
2023/03/03 02:28:30;;;;;;;1.27;0.70;;;22.60;99.90;;;;;;4976145;28;20270;-78
2023/03/03 02:31:02;;;;;;;1.58;0.70;;;22.70;99.90;;;;;;4976404;28;20192;-77
2023/03/03 02:33:33;;;;;;;3.38;0.85;;;22.80;99.90;;;;;;4976359;28;20196;-77
2023/03/03 02:36:04;;;;;;;2.03;0.90;;;22.80;99.90;;;;;;4976279;28;20247;-79
2023/03/03 02:38:41;;;;;;;2.20;0.63;;;22.90;99.90;;;;;;4975051;28;20232;-77
2023/03/03 02:41:17;;;;;;;5.50;0.82;;;22.90;99.90;;;;;;4994470;28;20195;-77
2023/03/03 02:43:58;;;;;;;2.17;0.50;;;23.00;99.90;;;;;;4983054;28;20199;-79
2023/03/03 02:46:29;;;;;;;2.85;0.55;;;23.00;99.90;;;;;;4991167;28;20204;-76
2023/03/03 02:49:00;;;;;;;1.20;0.50;;;23.20;99.90;;;;;;4995371;28;20223;-81
2023/03/03 02:51:31;;;;;;;1.60;0.50;;;23.30;99.90;;;;;;4990733;28;20199;-78
2023/03/03 02:54:01;;;;;;;1.33;0.45;;;23.40;99.90;;;;;;4993318;28;20199;-78
2023/03/03 02:56:32;;;;;;;1.30;0.50;;;23.50;99.90;;;;;;5004541;28;20724;-78
2023/03/03 02:59:05;;;;;;;3.33;0.60;;;23.50;99.90;;;;;;4996142;28;20206;-78
2023/03/03 03:01:37;;;;;;;1.27;0.47;;;23.60;99.90;;;;;;4980016;28;20196;-79
2023/03/03 03:04:11;;;;;;;1.10;0.40;;;23.60;99.90;;;;;;5002016;28;20203;-79
2023/03/03 03:06:42;;;;;;;1.15;0.45;;;23.60;99.90;;;;;;5014178;28;20195;-78
2023/03/03 03:09:14;;;;;;;1.92;0.60;;;23.60;99.90;;;;;;5000133;28;20235;-80
2023/03/03 03:11:45;;;;;;;1.23;0.40;;;23.60;99.90;;;;;;4978413;28;20235;-76
2023/03/03 03:14:18;;;;;;;1.33;0.52;;;23.60;99.90;;;;;;4980372;28;20200;-78
2023/03/03 03:16:49;;;;;;;3.15;0.50;;;23.50;99.90;;;;;;4994777;28;20188;-80
2023/03/03 03:19:19;;;;;;;1.60;0.50;;;23.50;99.90;;;;;;4988223;28;20273;-78
2023/03/03 03:21:50;;;;;;;0.65;0.45;;;23.40;99.90;;;;;;4985024;28;20239;-82
2023/03/03 03:24:20;;;;;;;1.17;0.60;;;23.50;99.90;;;;;;4994754;28;20600;-81
2023/03/03 03:26:51;;;;;;;0.88;0.45;;;23.60;99.90;;;;;;4994643;28;20192;-78
2023/03/03 03:29:25;;;;;;;0.85;0.60;;;23.60;99.90;;;;;;4994643;28;20223;-78
2023/03/03 03:31:57;;;;;;;1.23;0.50;;;23.60;99.90;;;;;;4994578;28;20191;-81
2023/03/03 03:34:29;;;;;;;1.23;0.70;;;23.70;99.90;;;;;;4993952;28;20203;-79
2023/03/03 03:37:00;;;;;;;1.27;0.60;;;23.70;99.90;;;;;;4994246;28;20275;-78
2023/03/03 03:39:30;;;;;;;2.67;0.80;;;23.70;99.90;;;;;;4987373;28;20233;-76
2023/03/03 03:42:01;;;;;;;0.93;0.50;;;23.60;99.90;;;;;;4994082;28;20773;-77
2023/03/03 03:44:34;;;;;;;1.83;0.70;;;23.50;99.90;;;;;;4977493;28;20192;-81
2023/03/03 03:47:06;;;;;;;2.35;0.70;;;23.40;99.90;;;;;;4994360;28;20345;-77
2023/03/03 03:49:37;;;;;;;1.55;0.52;;;23.50;99.90;;;;;;4994187;28;20235;-77
2023/03/03 03:52:07;;;;;;;1.67;0.70;;;23.50;99.90;;;;;;4994241;28;20192;-78
2023/03/03 03:54:38;;;;;;;1.50;0.70;;;23.50;99.90;;;;;;4989095;28;20195;-77
2023/03/03 03:57:09;;;;;;;1.30;0.70;;;23.60;99.90;;;;;;4994090;28;20192;-79
2023/03/03 03:59:41;;;;;;;1.90;0.57;;;23.60;99.90;;;;;;4994016;28;20194;-78
2023/03/03 04:02:12;;;;;;;1.13;0.70;;;23.70;99.90;;;;;;4994222;28;20662;-80
2023/03/03 04:04:42;;;;;;;3.97;0.65;;;23.70;99.90;;;;;;4994267;28;20192;-79
2023/03/03 04:07:13;;;;;;;2.10;0.60;;;23.70;99.90;;;;;;4994321;28;20195;-78
2023/03/03 04:09:45;;;;;;;2.00;0.52;;;23.80;99.90;;;;;;4993837;28;20239;-77
2023/03/03 04:12:15;;;;;;;1.50;0.43;;;23.70;99.90;;;;;;4985858;28;20244;-79
2023/03/03 04:14:48;;;;;;;1.55;0.40;;;23.70;99.90;;;;;;4994042;28;20195;-77
2023/03/03 04:17:20;;;;;;;1.77;0.30;;;23.80;99.90;;;;;;4994003;28;20192;-78
2023/03/03 04:19:51;;;;;;;1.85;0.75;;;23.80;99.90;;;;;;4994038;28;20195;-78
2023/03/03 04:22:21;;;;;;;1.33;0.50;;;23.80;99.90;;;;;;4993887;28;20199;-77
2023/03/03 04:24:52;;;;;;;1.10;0.57;;;23.90;99.90;;;;;;4993830;28;20192;-78
2023/03/03 04:27:22;;;;;;;1.67;0.50;;;23.90;99.90;;;;;;4993410;28;20203;-79
2023/03/03 04:29:55;;;;;;;2.50;1.63;;;23.80;99.90;;;;;;4989407;28;20219;-78
2023/03/03 04:32:27;;;;;;;2.55;0.40;;;23.90;99.90;;;;;;4991730;28;20587;-78
2023/03/03 04:34:58;;;;;;;1.73;1.13;;;23.90;99.90;;;;;;4976513;28;20199;-79
2023/03/03 04:37:28;;;;;;;3.47;0.77;;;23.90;99.90;;;;;;4993586;28;20195;-78
2023/03/03 04:39:59;;;;;;;3.80;2.47;;;23.90;99.90;;;;;;4993648;28;20250;-82
2023/03/03 04:42:29;;;;;;;1.17;0.60;;;23.90;99.90;;;;;;4993392;28;20191;-79
2023/03/03 04:45:04;;;;;;;1.95;0.70;;;24.00;99.90;;;;;;4993262;28;20196;-79
2023/03/03 04:47:35;;;;;;;2.90;0.77;;;24.00;99.90;;;;;;4992821;28;20191;-79
2023/03/03 04:50:06;;;;;;;2.03;0.77;;;24.00;99.90;;;;;;4989942;28;20227;-79
2023/03/03 04:52:36;;;;;;;1.13;0.70;;;24.10;99.90;;;;;;4976630;28;20222;-77
2023/03/03 04:55:08;;;;;;;1.52;0.60;;;24.00;99.90;;;;;;4993793;28;20195;-79
2023/03/03 04:57:40;;;;;;;1.48;0.50;;;23.80;99.90;;;;;;4993569;28;20254;-81
2023/03/03 05:00:17;;;;;;;1.90;0.52;;;23.70;99.90;;;;;;4993916;28;20219;-79
2023/03/03 05:02:50;;;;;;;0.90;0.60;;;23.70;99.90;;;;;;4993833;28;20242;-76
2023/03/03 05:05:21;;;;;;;2.25;0.40;;;23.70;99.90;;;;;;4993381;28;20192;-78
2023/03/03 05:07:51;;;;;;;2.30;0.50;;;23.60;99.90;;;;;;4993117;28;20196;-79
2023/03/03 05:10:23;;;;;;;1.80;0.40;;;23.50;99.90;;;;;;4986270;28;20609;-78
2023/03/03 05:12:57;;;;;;;0.57;0.50;;;23.60;99.90;;;;;;4986093;28;20286;-79
2023/03/03 05:15:29;;;;;;;0.77;0.40;;;23.60;99.90;;;;;;4992929;28;20229;-80
2023/03/03 05:18:00;;;;;;;1.27;0.30;;;23.70;99.90;;;;;;4993657;28;20188;-82
2023/03/03 05:20:32;;;;;;;2.67;0.70;;;23.70;99.90;;;;;;4992406;28;20196;-78
2023/03/03 05:23:02;;;;;;;3.10;0.60;;;23.60;99.90;;;;;;4973836;28;20247;-80
2023/03/03 05:25:35;;;;;;;1.15;0.40;;;23.60;99.90;;;;;;4993322;28;20192;-78
2023/03/03 05:28:05;;;;;;;1.70;0.50;;;23.60;99.90;;;;;;4993474;28;20251;-79
2023/03/03 05:30:38;;;;;;;2.33;0.60;;;23.70;99.90;;;;;;4991996;28;20220;-78
2023/03/03 05:33:12;;;;;;;1.02;0.40;;;23.70;99.90;;;;;;4993397;28;20196;-81
2023/03/03 05:35:43;;;;;;;0.50;0.40;;;23.70;99.90;;;;;;4993206;28;20188;-78
2023/03/03 05:38:14;;;;;;;0.50;0.40;;;23.60;99.90;;;;;;4993316;28;20255;-78
2023/03/03 05:40:46;;;;;;;0.45;0.28;;;23.70;99.90;;;;;;4976671;28;20295;-79
2023/03/03 05:43:18;;;;;;;2.25;0.50;;;23.80;99.90;;;;;;4980058;28;20243;-78
2023/03/03 05:45:56;;;;;;;0.50;0.30;;;23.80;99.90;;;;;;4996449;28;20188;-80
2023/03/03 05:48:27;;;;;;;1.38;0.50;;;23.80;99.90;;;;;;4996224;28;20666;-79
2023/03/03 05:51:00;;;;;;;3.63;0.65;;;23.90;99.90;;;;;;4996431;28;20195;-79
2023/03/03 05:53:31;;;;;;;3.33;0.68;;;23.90;99.90;;;;;;4967187;28;20199;-79
2023/03/03 05:56:01;;;;;;;2.05;0.60;;;23.80;99.90;;;;;;4977123;28;20248;-78
2023/03/03 05:58:33;;;;;;;1.35;0.60;;;23.70;99.90;;;;;;4965028;28;20246;-83
2023/03/03 06:01:06;;;;;;;2.28;0.63;;;23.80;99.90;;;;;;4994562;28;20196;-87
2023/03/03 06:03:37;;;;;;;2.40;0.57;;;23.80;99.90;;;;;;4993645;28;20203;-78
2023/03/03 06:06:09;;;;;;;2.47;0.50;;;23.80;99.90;;;;;;4986170;28;20647;-78
2023/03/03 06:08:40;;;;;;;1.30;0.55;;;23.80;99.90;;;;;;4953829;28;20303;-80
2023/03/03 06:11:11;;;;;;;1.75;0.50;;;23.80;99.90;;;;;;4992140;28;20254;-80
2023/03/03 06:13:42;;;;;;;1.55;0.30;;;23.70;99.90;;;;;;4978734;28;20207;-79
2023/03/03 06:16:15;;;;;;;0.60;0.32;;;23.80;99.90;;;;;;4990373;28;20188;-80
2023/03/03 06:18:45;;;;;;;1.85;0.40;;;23.90;99.90;;;;;;4996145;28;20196;-78
2023/03/03 06:21:17;;;;;;;1.73;0.60;;;24.00;99.90;;;;;;4993952;28;20234;-79
2023/03/03 06:23:52;;;;;;;1.42;0.47;;;24.00;99.90;;;;;;4996046;28;20279;-78
2023/03/03 06:26:25;;;;;;;0.90;0.47;;;23.90;99.90;;;;;;4976383;28;20202;-78
2023/03/03 06:28:59;;;;;;;1.60;0.50;;;23.90;99.90;;;;;;4994929;28;20299;-80
2023/03/03 06:31:32;;;;;;;0.88;0.40;;;23.90;99.90;;;;;;4995292;28;20194;-82
2023/03/03 06:34:03;;;;;;;0.32;0.30;;;23.90;99.90;;;;;;4993399;28;20204;-79
2023/03/03 06:36:34;;;;;;;1.92;0.50;;;24.00;99.90;;;;;;4996401;28;20225;-79
2023/03/03 06:39:12;;;;;;;1.15;0.50;;;24.00;99.90;;;;;;4995443;28;20195;-80
2023/03/03 06:41:44;;;;;;;0.63;0.38;;;24.00;99.90;;;;;;4991408;28;20651;-78
2023/03/03 06:44:18;;;;;;;2.42;0.60;;;24.10;99.90;;;;;;4988352;28;20207;-79
2023/03/03 06:46:52;;;;;;;1.90;0.75;;;24.10;99.90;;;;;;4990834;28;20195;-79
2023/03/03 06:49:25;;;;;;;2.03;0.88;;;24.10;99.90;;;;;;4977704;28;20259;-78
2023/03/03 06:52:00;;;;;;;1.35;0.77;;;24.00;99.90;;;;;;5010931;28;20199;-79
2023/03/03 06:54:33;;;;;;;2.38;0.70;;;24.00;99.90;;;;;;4996410;28;20217;-82
2023/03/03 06:57:22;;;;;;;1.00;0.55;;;24.00;99.90;;;;;;5014918;28;20589;-79
2023/03/03 06:59:56;;;;;;;2.95;0.68;;;23.90;99.90;;;;;;4985501;28;20236;-79
2023/03/03 07:02:29;;;;;;;0.90;0.70;;;24.00;99.90;;;;;;4990105;28;20565;-79
2023/03/03 07:05:00;;;;;;;0.88;0.60;;;23.80;99.90;;;;;;4990182;28;20282;-78
2023/03/03 07:07:31;;;;;;;1.23;0.80;;;23.80;99.90;;;;;;4990778;28;20262;-80
2023/03/03 07:10:09;;;;;;;0.93;0.70;;;23.80;99.90;;;;;;4995131;28;20235;-78
2023/03/03 07:12:40;;;;;;;3.05;0.80;;;23.80;99.90;;;;;;4995208;28;20229;-77
2023/03/03 07:15:20;;;;;;;1.15;0.60;;;23.80;99.90;;;;;;4994581;28;20206;-82
2023/03/03 07:17:58;;;;;;;1.10;0.77;;;23.80;99.90;;;;;;4995698;28;20200;-79
2023/03/03 07:20:37;;;;;;;1.98;0.80;;;23.80;99.90;;;;;;4991774;28;20532;-77
2023/03/03 07:23:20;;;;;;;1.27;0.47;;;23.70;99.90;;;;;;4993103;28;20245;-78
2023/03/03 07:25:52;;;;;;;1.60;0.63;;;23.70;99.90;;;;;;4977448;28;20640;-78
2023/03/03 07:28:27;;;;;;;2.15;0.60;;;23.60;99.90;;;;;;4989919;28;20199;-77
2023/03/03 07:31:00;;;;;;;1.60;0.60;;;23.60;99.90;;;;;;4999728;28;20225;-77
2023/03/03 07:33:36;;;;;;;3.42;1.15;;;23.60;99.90;;;;;;4987641;28;20211;-79
2023/03/03 07:36:08;;;;;;;2.25;1.00;;;23.60;99.90;;;;;;5003705;28;20223;-80
2023/03/03 07:38:43;;;;;;;1.00;0.50;;;23.50;99.90;;;;;;5002422;28;20199;-78
2023/03/03 07:41:19;;;;;;;1.45;0.70;;;23.50;99.90;;;;;;4999332;28;20195;-79
2023/03/03 07:43:53;;;;;;;1.00;0.70;;;23.40;99.90;;;;;;4995101;28;20266;-79
2023/03/03 07:46:31;;;;;;;0.90;0.68;;;23.40;99.90;;;;;;4994290;28;20673;-77
2023/03/03 07:49:14;;;;;;;2.15;0.70;;;23.40;99.90;;;;;;4992639;28;20207;-78
2023/03/03 07:51:45;;;;;;;1.92;0.60;;;23.40;99.90;;;;;;4999416;28;20202;-77
2023/03/03 07:54:37;;;;;;;1.17;0.90;;;23.40;99.90;;;;;;4990071;28;20262;-77
2023/03/03 07:57:21;;;;;;;1.23;0.70;;;23.40;99.90;;;;;;4988869;28;20211;-77
2023/03/03 07:59:55;;;;;;;1.58;0.90;;;23.40;99.90;;;;;;4994081;28;20355;-79
2023/03/03 08:02:44;;;;;;;1.67;1.00;;;23.30;99.90;;;;;;4990914;28;20226;-77
2023/03/03 08:08:44;;;;;;;3.50;1.75;;;23.30;99.90;;;;;;5134346;27;20291;-83
2023/03/03 08:11:16;;;;;;;5.07;1.60;;;23.30;99.90;;;;;;5125497;28;20195;-79
2023/03/03 08:13:49;;;;;;;3.17;1.50;;;23.30;99.90;;;;;;5126003;28;20199;-79
2023/03/03 08:16:32;;;;;;;3.80;1.50;;;23.30;99.90;;;;;;5123678;27;20234;-78
2023/03/03 08:19:06;;;;;;;6.22;1.60;;;23.20;99.90;;;;;;5128105;28;20201;-79
2023/03/03 08:21:38;;;;;;;7.40;1.70;;;23.10;99.90;;;;;;5121524;27;20250;-79
2023/03/03 08:24:12;;;;;;;4.50;1.80;;;23.00;99.90;;;;;;5126996;27;20202;-79
2023/03/03 08:26:43;;;;;;;4.47;2.53;;;22.80;99.90;;;;;;5123740;28;20211;-79
2023/03/03 08:29:15;;;;;;;3.50;2.15;;;22.70;99.90;;;;;;5125291;27;20210;-79
2023/03/03 08:31:47;;;;;;;4.55;2.38;;;22.60;99.90;;;;;;5124153;27;20273;-78
2023/03/03 08:34:18;;;;;;;5.10;2.40;;;22.40;99.90;;;;;;5127214;27;20558;-78
2023/03/03 08:36:52;;;;;;;8.45;2.53;;;22.30;99.90;;;;;;5122684;28;20205;-76
2023/03/03 08:39:26;;;;;;;6.97;2.50;;;22.20;99.90;;;;;;5117701;28;20198;-77
2023/03/03 08:41:58;;;;;;;5.32;2.20;;;22.10;99.90;;;;;;5125212;28;20203;-77
2023/03/03 08:44:29;;;;;;;6.15;2.60;;;22.00;99.90;;;;;;5122037;28;20721;-81
2023/03/03 08:47:02;;;;;;;8.25;2.72;;;22.00;99.90;;;;;;5120888;27;20234;-77
2023/03/03 08:49:32;;;;;;;5.65;2.25;;;21.90;99.90;;;;;;5122409;28;20669;-78
2023/03/03 08:52:04;;;;;;;5.93;2.00;;;21.90;99.90;;;;;;5125002;27;20565;-77
2023/03/03 08:54:41;;;;;;;4.07;2.25;;;21.80;99.90;;;;;;5122600;27;20278;-83
2023/03/03 08:57:13;;;;;;;4.63;1.90;;;21.70;99.90;;;;;;5121099;27;20307;-81
2023/03/03 08:59:43;;;;;;;5.28;1.98;;;21.60;99.90;;;;;;5121036;27;20654;-77
2023/03/03 09:02:14;;;;;;;4.40;1.98;;;21.60;99.90;;;;;;5121028;28;20279;-77
2023/03/03 09:04:45;;;;;;;4.97;2.08;;;21.50;99.90;;;;;;5123773;27;20187;-77
2023/03/03 09:07:22;;;;;;;7.15;2.22;;;21.50;99.90;;;;;;5121943;28;20243;-77
2023/03/03 09:09:55;;;;;;;4.55;1.98;;;21.40;99.90;;;;;;5123060;28;20201;-78
2023/03/03 09:12:31;;;;;;;4.93;1.92;;;21.40;99.90;;;;;;5117994;28;20195;-79
2023/03/03 09:15:10;;;;;;;3.60;1.90;;;21.30;99.90;;;;;;5121515;27;20195;-79
2023/03/03 09:17:41;;;;;;;5.70;2.28;;;21.20;99.90;;;;;;5115527;28;20191;-78
2023/03/03 09:20:38;;;;;;;3.78;2.25;;;21.20;99.90;;;;;;5105834;28;20265;-82
2023/03/03 09:23:37;;;;;;;7.82;2.33;;;21.10;99.90;;;;;;5107020;28;20199;-79
2023/03/03 09:26:27;;;;;;;7.30;2.53;;;21.10;99.90;;;;;;5107714;28;20199;-78
2023/03/03 09:29:00;;;;;;;5.13;2.30;;;21.00;99.90;;;;;;5106215;28;21777;-77
2023/03/03 09:31:41;;;;;;;5.28;2.25;;;21.00;99.90;;;;;;5106178;28;20306;-78
2023/03/03 09:34:28;;;;;;;7.75;2.40;;;21.00;99.90;;;;;;5107442;28;20199;-83
2023/03/03 09:36:59;;;;;;;5.38;2.03;;;21.00;99.90;;;;;;5113146;28;20213;-78
2023/03/03 09:39:31;;;;;;;3.13;2.25;;;21.00;99.90;;;;;;5096019;28;20207;-77
2023/03/03 09:43:11;;;;;;;3.40;2.10;;;21.00;99.90;;;;;;5109100;28;20225;-79
2023/03/03 09:45:59;;;;;;;5.95;2.40;;;20.90;99.90;;;;;;5100363;28;20201;-77
2023/03/03 09:48:48;;;;;;;5.55;2.22;;;20.90;99.90;;;;;;5106631;28;20219;-77
2023/03/03 09:51:44;;;;;;;3.40;1.95;;;20.90;99.90;;;;;;5104999;28;20248;-78
2023/03/03 09:54:36;;;;;;;6.97;2.30;;;20.90;99.90;;;;;;5096612;28;20266;-78
2023/03/03 09:57:16;;;;;;;3.70;2.28;;;20.90;99.90;;;;;;5107226;28;20204;-78
2023/03/03 10:00:20;;;;;;;6.10;2.70;;;20.80;99.90;;;;;;5104570;28;20240;-78
2023/03/03 10:03:11;;;;;;;5.57;2.05;;;20.80;99.90;;;;;;5083123;28;20204;-77
2023/03/03 10:05:51;;;;;;;5.00;2.15;;;20.80;99.90;;;;;;5112819;28;20643;-78
2023/03/03 10:08:35;;;;;;;6.28;2.45;;;20.80;99.90;;;;;;5097306;28;20312;-77
2023/03/03 10:11:17;;;;;;;6.10;2.60;;;20.80;99.90;;;;;;5102053;28;20666;-78
2023/03/03 10:14:14;;;;;;;7.25;2.40;;;20.80;99.90;;;;;;5112009;28;20192;-78
2023/03/03 10:17:16;;;;;;;4.95;2.47;;;20.80;99.90;;;;;;5104617;28;20260;-77
2023/03/03 10:20:00;;;;;;;4.72;2.33;;;20.80;99.90;;;;;;5102458;28;20203;-82
2023/03/03 10:22:43;;;;;;;5.53;2.33;;;20.80;99.90;;;;;;5112455;28;20256;-78
2023/03/03 10:25:23;;;;;;;6.18;2.70;;;20.80;99.90;;;;;;5102805;28;20688;-83
2023/03/03 10:28:29;;;;;;;5.53;2.65;;;20.90;99.90;;;;;;5108701;28;20264;-82
2023/03/03 10:31:20;;;;;;;5.65;2.55;;;20.80;99.90;;;;;;5107246;28;20196;-77
2023/03/03 10:34:16;;;;;;;4.85;2.60;;;20.80;99.90;;;;;;5114168;28;20361;-78
2023/03/03 10:36:55;;;;;;;3.78;2.40;;;20.80;99.90;;;;;;5095040;28;20196;-78
2023/03/03 10:39:47;;;;;;;4.32;2.70;;;20.80;99.90;;;;;;5105253;28;20218;-79
2023/03/03 10:42:43;;;;;;;5.85;2.88;;;20.90;99.90;;;;;;5107146;28;20199;-78
2023/03/03 10:45:46;;;;;;;3.90;2.40;;;20.90;99.90;;;;;;5111141;28;20199;-78
2023/03/03 10:48:45;;;;;;;4.50;2.50;;;20.90;99.90;;;;;;5092855;28;20631;-79
2023/03/03 10:51:29;;;;;;;4.82;2.40;;;20.90;99.90;;;;;;5075435;28;20324;-78
2023/03/03 10:54:24;;;;;;;5.53;2.50;;;21.00;99.90;;;;;;5102814;28;20192;-78
2023/03/03 10:57:02;;;;;;;3.83;2.40;;;21.00;99.90;;;;;;5110258;28;20647;-77
2023/03/03 10:59:56;;;;;;;6.13;2.20;;;21.00;99.90;;;;;;5104222;28;20204;-85
2023/03/03 11:02:37;;;;;;;4.38;2.13;;;21.00;99.90;;;;;;5107448;28;20203;-79
2023/03/03 11:05:38;;;;;;;4.65;2.20;;;21.00;99.90;;;;;;5099211;28;20199;-78
2023/03/03 11:08:22;;;;;;;3.45;2.25;;;21.00;99.90;;;;;;5098153;28;20238;-81
2023/03/03 11:11:01;;;;;;;2.88;2.00;;;21.00;99.90;;;;;;5092757;28;20202;-80
2023/03/03 11:13:43;;;;;;;3.47;2.05;;;21.00;99.90;;;;;;5105971;28;20194;-79
2023/03/03 11:16:37;;;;;;;3.80;2.20;;;21.00;99.90;;;;;;5110193;28;20268;-79
2023/03/03 11:19:43;;;;;;;2.92;2.28;;;21.00;99.90;;;;;;5105141;28;20199;-78
2023/03/03 11:22:34;;;;;;;2.40;2.08;;;21.10;99.90;;;;;;5114513;28;20553;-78
2023/03/03 11:25:23;;;;;;;3.25;2.13;;;21.00;99.90;;;;;;5111252;28;20191;-87
2023/03/03 11:28:24;;;;;;;3.17;2.20;;;21.10;99.90;;;;;;5111706;28;20310;-79
2023/03/03 11:31:08;;;;;;;4.13;2.20;;;21.10;99.90;;;;;;5103898;28;20192;-88
2023/03/03 11:33:50;;;;;;;3.75;2.17;;;21.10;99.90;;;;;;5102565;28;20223;-78
2023/03/03 11:36:27;;;;;;;3.67;2.20;;;21.10;99.90;;;;;;5111929;28;20662;-79
2023/03/03 11:39:01;;;;;;;3.85;2.28;;;21.10;99.90;;;;;;5111144;28;20195;-79
2023/03/03 11:41:59;;;;;;;3.08;2.20;;;21.10;99.90;;;;;;5109858;28;20195;-81
2023/03/03 11:44:37;;;;;;;3.92;2.30;;;21.10;99.90;;;;;;5093013;28;20196;-80
2023/03/03 11:47:19;;;;;;;5.03;2.35;;;21.20;99.90;;;;;;5104576;28;20218;-78
2023/03/03 11:49:58;;;;;;;4.57;2.40;;;21.10;99.90;;;;;;5102625;28;20638;-80
2023/03/03 11:52:39;;;;;;;4.38;2.28;;;21.10;99.90;;;;;;5113648;28;20187;-76
2023/03/03 11:55:15;;;;;;;5.57;2.30;;;21.10;99.90;;;;;;5102956;28;20248;-83
2023/03/03 11:57:59;;;;;;;4.63;2.45;;;21.10;99.90;;;;;;5098160;28;20246;-79
2023/03/03 12:00:36;;;;;;;3.97;2.42;;;21.10;99.90;;;;;;5105758;28;20206;-85
2023/03/03 12:03:28;;;;;;;3.03;2.25;;;21.10;99.90;;;;;;5097884;28;20200;-77
2023/03/03 12:06:21;;;;;;;5.72;2.38;;;21.10;99.90;;;;;;5099693;28;20200;-79
2023/03/03 12:09:11;;;;;;;2.83;2.20;;;21.10;99.90;;;;;;5098269;28;20235;-77
2023/03/03 12:12:01;;;;;;;2.85;2.22;;;21.10;99.90;;;;;;5100277;28;20672;-77
2023/03/03 12:15:01;;;;;;;3.88;2.28;;;21.10;99.90;;;;;;5102197;28;20211;-77
2023/03/03 12:17:56;;;;;;;3.95;2.38;;;21.10;99.90;;;;;;5098140;28;20204;-85
2023/03/03 12:20:34;;;;;;;3.83;2.42;;;21.10;99.90;;;;;;5049408;28;20207;-79
2023/03/03 12:23:28;;;;;;;2.83;2.28;;;21.10;99.90;;;;;;5093111;28;20216;-79
2023/03/03 12:26:11;;;;;;;3.17;2.50;;;21.00;99.90;;;;;;5096858;28;20203;-80
2023/03/03 12:28:48;;;;;;;3.72;2.40;;;21.10;99.90;;;;;;5108023;28;20215;-79
2023/03/03 12:31:37;;;;;;;4.20;2.60;;;21.00;99.90;;;;;;5093402;28;20274;-78
2023/03/03 12:34:26;;;;;;;3.63;2.22;;;21.00;99.90;;;;;;5102716;28;20203;-77
2023/03/03 12:37:22;;;;;;;3.45;2.60;;;21.00;99.90;;;;;;5109599;28;20655;-77
2023/03/03 12:40:05;;;;;;;4.03;2.58;;;21.00;99.90;;;;;;5109785;28;20192;-79
2023/03/03 12:42:57;;;;;;;3.20;2.50;;;21.10;99.90;;;;;;5112014;28;20207;-77
2023/03/03 12:45:39;;;;;;;3.92;2.63;;;21.00;99.90;;;;;;5100395;28;20249;-77
2023/03/03 12:48:22;;;;;;;5.22;2.50;;;21.00;99.90;;;;;;5099023;28;20256;-77
2023/03/03 12:51:01;;;;;;;4.95;2.60;;;21.00;99.90;;;;;;5090052;28;20278;-77
2023/03/03 12:53:49;;;;;;;3.63;2.53;;;21.00;99.90;;;;;;5098146;28;20185;-81
2023/03/03 12:56:27;;;;;;;3.55;2.40;;;21.00;99.90;;;;;;5106659;28;20232;-78
2023/03/03 12:59:10;;;;;;;5.28;2.55;;;21.00;99.90;;;;;;5099606;28;20183;-84
2023/03/03 13:02:00;;;;;;;3.72;2.63;;;20.90;99.90;;;;;;5103636;28;20188;-77
2023/03/03 13:04:38;;;;;;;4.18;2.40;;;21.00;99.90;;;;;;5106013;28;20639;-86
2023/03/03 13:07:20;;;;;;;2.85;2.30;;;20.90;99.90;;;;;;5103723;28;20727;-78
2023/03/03 13:10:12;;;;;;;5.25;2.55;;;20.90;99.90;;;;;;5105589;28;20271;-77
2023/03/03 13:12:49;;;;;;;4.82;2.33;;;20.90;99.90;;;;;;5113178;28;20202;-78
2023/03/03 13:15:25;;;;;;;3.45;2.47;;;20.90;99.90;;;;;;5096088;28;20200;-82
2023/03/03 13:18:19;;;;;;;4.38;2.33;;;20.90;99.90;;;;;;5111750;28;20272;-81
2023/03/03 13:21:04;;;;;;;3.63;2.22;;;20.90;99.90;;;;;;5110026;27;20201;-83
2023/03/03 13:23:56;;;;;;;4.00;2.33;;;20.90;99.90;;;;;;5111590;28;20240;-85
2023/03/03 13:26:32;;;;;;;3.22;2.22;;;20.90;99.90;;;;;;5111185;27;20246;-78
2023/03/03 13:29:11;;;;;;;2.58;2.20;;;20.90;99.90;;;;;;5096348;28;20316;-78
2023/03/03 13:31:47;;;;;;;3.92;2.20;;;20.90;99.90;;;;;;5105197;28;20203;-78
2023/03/03 13:34:29;;;;;;;3.25;2.25;;;20.80;99.90;;;;;;5114136;28;20190;-79
2023/03/03 13:37:06;;;;;;;3.95;2.25;;;20.80;99.90;;;;;;5113330;28;20252;-81
2023/03/03 13:39:45;;;;;;;3.90;2.15;;;20.80;99.90;;;;;;5112739;28;20650;-78
2023/03/03 13:42:26;;;;;;;4.50;2.40;;;20.80;99.90;;;;;;5105146;28;20601;-77
2023/03/03 13:44:58;;;;;;;4.43;2.67;;;20.80;99.90;;;;;;5106969;28;20184;-83